createdAt,value
2018-07-30T00:00:06.060Z,91.3
2018-07-30T00:05:05.419Z,91.5
2018-07-30T00:10:08.318Z,91.6
2018-07-30T00:20:05.874Z,92
2018-07-30T00:25:25.424Z,91.7
2018-07-30T00:30:05.271Z,91.3
2018-07-30T00:35:10.727Z,91.2
2018-07-30T00:40:10.141Z,91.4
2018-07-30T00:45:02.969Z,91.4
2018-07-30T00:50:05.072Z,91.3
2018-07-30T00:55:15.645Z,91.7
2018-07-30T01:00:02.984Z,91.7
2018-07-30T01:05:03.366Z,91.5
2018-07-30T01:10:05.808Z,91.5
2018-07-30T01:15:17.754Z,91.8
2018-07-30T01:20:05.723Z,91.5
2018-07-30T01:25:08.585Z,91.8
2018-07-30T01:30:02.943Z,91.8
2018-07-30T01:35:03.307Z,91.7
2018-07-30T01:40:08.169Z,91.7
2018-07-30T01:45:08.538Z,91.9
2018-07-30T01:50:05.506Z,91.9
2018-07-30T01:55:05.909Z,91.6
2018-07-30T02:00:05.775Z,91.8
2018-07-30T02:05:32.985Z,91.5
2018-07-30T02:10:02.767Z,91.5
2018-07-30T02:15:10.747Z,91.7
2018-07-30T02:20:03.217Z,91.7
2018-07-30T02:25:08.558Z,92
2018-07-30T02:30:15.530Z,91.9
2018-07-30T02:35:05.830Z,91.9
2018-07-30T02:40:07.688Z,92.1
2018-07-30T02:45:03.039Z,92.1
2018-07-30T02:50:08.476Z,92
2018-07-30T02:55:10.356Z,92.2
2018-07-30T03:00:02.742Z,92.2
2018-07-30T03:05:05.713Z,92.1
2018-07-30T03:10:02.545Z,92
2018-07-30T03:15:08.017Z,92.6
2018-07-30T03:20:03.450Z,92.6
2018-07-30T03:25:07.869Z,92.6
2018-07-30T03:30:08.329Z,92.7
2018-07-30T03:35:20.394Z,92.8
2018-07-30T03:40:10.848Z,92.8
2018-07-30T03:45:10.372Z,93
2018-07-30T03:50:02.711Z,93
2018-07-30T03:55:03.141Z,93
2018-07-30T04:00:11.464Z,93
2018-07-30T04:05:10.692Z,92.8
2018-07-30T04:10:02.590Z,92.8
2018-07-30T04:15:13.088Z,92.8
2018-07-30T04:20:03.527Z,92.8
2018-07-30T04:25:13.164Z,92.6
2018-07-30T04:30:03.507Z,92.6
2018-07-30T04:35:05.431Z,92.9
2018-07-30T04:40:03.231Z,92.9
2018-07-30T04:45:05.236Z,93.1
2018-07-30T04:50:07.633Z,93
2018-07-30T04:55:03.099Z,93
2018-07-30T05:00:03.490Z,93.4
2018-07-30T05:05:05.406Z,94
2018-07-30T05:10:08.324Z,94.1
2018-07-30T05:15:02.650Z,94.1
2018-07-30T05:20:08.170Z,94.4
2018-07-30T05:25:03.455Z,94.4
2018-07-30T05:30:30.626Z,94.9
2018-07-30T05:40:02.596Z,95.3
2018-07-30T05:45:25.798Z,95.6
2018-07-30T05:50:08.308Z,95.3
2018-07-30T05:55:26.239Z,95.5
2018-07-30T06:00:05.185Z,95.4
2018-07-30T06:05:05.464Z,95.5
2018-07-30T06:10:05.802Z,96
2018-07-30T06:15:02.718Z,96
2018-07-30T06:20:03.232Z,96.1
2018-07-30T06:25:18.751Z,96.7
2018-07-30T06:30:22.853Z,96.8
2018-07-30T06:35:08.261Z,96.6
2018-07-30T06:40:10.675Z,96.9
2018-07-30T06:45:06.035Z,97
2018-07-30T06:50:31.277Z,96.9
2018-07-30T06:55:05.145Z,97
2018-07-30T07:00:38.844Z,96.3
2018-07-30T07:05:10.787Z,96
2018-07-30T07:10:10.169Z,96.3
2018-07-30T07:15:03.020Z,96.3
2018-07-30T07:20:36.343Z,94.7
2018-07-30T07:25:02.696Z,94.7
2018-07-30T07:30:05.582Z,93.9
2018-07-30T07:35:08.442Z,93.4
2018-07-30T07:40:10.864Z,93.3
2018-07-30T07:45:13.009Z,92.9
2018-07-30T07:50:07.977Z,92.3
2018-07-30T07:55:02.658Z,92.4
2018-07-30T08:00:08.228Z,92.1
2018-07-30T08:05:16.067Z,91.4
2018-07-30T08:10:08.271Z,91.3
2018-07-30T08:15:05.142Z,90.5
2018-07-30T08:20:02.714Z,90.5
2018-07-30T08:25:03.276Z,90.7
2018-07-30T08:30:07.786Z,90
2018-07-30T08:35:05.554Z,89.5
2018-07-30T08:40:05.940Z,88.3
2018-07-30T08:45:05.496Z,88.7
2018-07-30T08:50:05.336Z,88.6
2018-07-30T08:55:03.243Z,88.7
2018-07-30T09:00:05.293Z,85.9
2018-07-30T09:05:28.419Z,84.6
2018-07-30T09:10:18.536Z,82.7
2018-07-30T09:15:07.741Z,83
2018-07-30T09:20:02.601Z,83
2018-07-30T09:25:02.992Z,82.9
2018-07-30T09:30:21.095Z,78.9
2018-07-30T09:35:20.547Z,78.4
2018-07-30T09:40:03.354Z,78.4
2018-07-30T09:45:02.745Z,77.8
2018-07-30T09:50:30.957Z,71.4
2018-07-30T09:55:05.846Z,71.7
2018-07-30T10:00:08.492Z,71
2018-07-30T10:05:02.821Z,71
2018-07-30T10:10:02.728Z,69.5
2018-07-30T10:15:10.859Z,68.3
2018-07-30T10:20:07.648Z,66.3
2018-07-30T10:25:05.470Z,65.5
2018-07-30T10:30:05.430Z,63.3
2018-07-30T10:35:05.825Z,61.1
2018-07-30T10:40:08.297Z,59.5
2018-07-30T10:45:17.894Z,59.6
2018-07-30T10:50:23.677Z,56.7
2018-07-30T10:55:23.276Z,1.9
2018-07-30T11:00:05.169Z,52.9
2018-07-30T11:05:08.156Z,55.5
2018-07-30T11:10:03.023Z,55.4
2018-07-30T11:15:02.614Z,53
2018-07-30T11:20:03.091Z,51.7
2018-07-30T11:25:03.530Z,52.1
2018-07-30T11:30:33.593Z,45.9
2018-07-30T11:35:05.593Z,45.8
2018-07-30T11:40:16.235Z,50.2
2018-07-30T11:45:05.525Z,47.2
2018-07-30T11:50:23.323Z,46.5
2018-07-30T11:55:05.489Z,45.5
2018-07-30T12:00:10.482Z,44.9
2018-07-30T12:05:05.876Z,42.9
2018-07-30T12:10:02.785Z,43
2018-07-30T12:15:03.335Z,44.2
2018-07-30T12:20:02.983Z,43.8
2018-07-30T12:25:08.531Z,42
2018-07-30T12:30:21.036Z,43.1
2018-07-30T12:35:05.267Z,41.7
2018-07-30T12:40:02.603Z,41.6
2018-07-30T12:45:03.221Z,43
2018-07-30T12:50:10.257Z,42.1
2018-07-30T12:55:03.228Z,41.8
2018-07-30T13:00:02.657Z,40
2018-07-30T13:05:33.409Z,39.4
2018-07-30T13:10:05.962Z,39.5
2018-07-30T13:15:10.446Z,37.9
2018-07-30T13:20:05.552Z,39.5
2018-07-30T13:25:11.057Z,43.8
2018-07-30T13:30:02.627Z,44.4
2018-07-30T13:35:03.057Z,44.9
2018-07-30T13:40:02.936Z,44.4
2018-07-30T13:45:08.522Z,41.9
2018-07-30T13:50:03.012Z,41.7
2018-07-30T13:55:20.465Z,40.8
2018-07-30T14:00:10.548Z,41.3
2018-07-30T14:05:03.338Z,41.3
2018-07-30T14:10:05.962Z,38.6
2018-07-30T14:15:05.448Z,40.4
2018-07-30T14:20:08.141Z,39.3
2018-07-30T14:25:05.168Z,38.8
2018-07-30T14:30:15.392Z,37.3
2018-07-30T14:35:05.753Z,39.1
2018-07-30T14:40:05.173Z,37.3
2018-07-30T14:45:05.694Z,38.7
2018-07-30T14:50:31.143Z,36.5
2018-07-30T14:55:12.703Z,41
2018-07-30T15:00:05.746Z,42.9
2018-07-30T15:05:05.159Z,36.3
2018-07-30T15:10:25.863Z,36
2018-07-30T15:15:05.109Z,39.9
2018-07-30T15:20:07.800Z,34.3
2018-07-30T15:25:10.679Z,8
2018-07-30T15:30:03.070Z,33.6
2018-07-30T15:35:02.591Z,32.2
2018-07-30T15:40:06.060Z,33.4
2018-07-30T15:45:05.530Z,36.1
2018-07-30T15:50:03.053Z,36
2018-07-30T15:55:08.693Z,37
2018-07-30T16:05:38.369Z,38.7
2018-07-30T16:10:10.838Z,36.8
2018-07-30T16:15:10.604Z,36
2018-07-30T16:20:08.157Z,34.7
2018-07-30T16:25:07.660Z,33.5
2018-07-30T16:30:08.149Z,36.4
2018-07-30T16:35:07.643Z,36
2018-07-30T16:40:10.147Z,35.9
2018-07-30T16:45:05.649Z,35.9
2018-07-30T16:50:03.164Z,35.9
2018-07-30T16:55:05.131Z,37.3
2018-07-30T17:00:18.708Z,37.6
2018-07-30T17:05:23.221Z,38.7
2018-07-30T17:10:26.008Z,38.2
2018-07-30T17:15:16.046Z,38.1
2018-07-30T17:20:10.151Z,37.8
2018-07-30T17:25:08.162Z,39.3
2018-07-30T17:30:11.280Z,38.8
2018-07-30T17:35:02.960Z,38.8
2018-07-30T17:40:10.541Z,39.9
2018-07-30T17:45:13.494Z,40
2018-07-30T17:50:05.545Z,46.7
2018-07-30T17:55:08.410Z,44.8
2018-07-30T18:00:02.895Z,44.7
2018-07-30T18:05:03.289Z,43.8
2018-07-30T18:10:10.805Z,43.2
2018-07-30T18:15:05.246Z,44.4
2018-07-30T18:20:15.533Z,43.2
2018-07-30T18:25:05.787Z,48.1
2018-07-30T18:30:03.270Z,48.2
2018-07-30T18:35:02.653Z,44.6
2018-07-30T18:40:21.266Z,44.1
2018-07-30T18:45:05.508Z,44.3
2018-07-30T18:50:05.533Z,44.1
2018-07-30T19:00:10.381Z,43.8
2018-07-30T19:05:08.263Z,42.4
2018-07-30T19:10:10.740Z,42.6
2018-07-30T19:15:05.100Z,43.1
2018-07-30T19:20:05.352Z,43.4
2018-07-30T19:25:20.377Z,42.5
2018-07-30T19:30:07.885Z,45.1
2018-07-30T19:35:03.317Z,45
2018-07-30T19:40:08.197Z,43.2
2018-07-30T19:45:03.210Z,43.2
2018-07-30T19:50:05.241Z,46
2018-07-30T19:55:03.128Z,46.1
2018-07-30T20:00:08.506Z,48
2018-07-30T20:05:07.941Z,47.8
2018-07-30T20:10:07.995Z,48.7
2018-07-30T20:15:06.044Z,49.8
2018-07-30T20:20:05.196Z,51.2
2018-07-30T20:25:08.105Z,51.7
2018-07-30T20:30:11.097Z,50.7
2018-07-30T20:35:05.409Z,52
2018-07-30T20:40:03.171Z,52
2018-07-30T20:45:05.167Z,51.8
2018-07-30T20:50:12.686Z,51.5
2018-07-30T20:55:05.497Z,51.2
2018-07-30T21:00:23.161Z,51.9
2018-07-30T21:05:02.700Z,52
2018-07-30T21:10:07.680Z,51.8
2018-07-30T21:15:08.080Z,50.4
2018-07-30T21:20:03.541Z,50.4
2018-07-30T21:25:03.017Z,50.7
2018-07-30T21:30:03.333Z,50
2018-07-30T21:35:10.483Z,49.2
2018-07-30T21:40:03.335Z,49.1
2018-07-30T21:45:10.330Z,48.9
2018-07-30T21:55:15.537Z,49.3
2018-07-30T22:00:02.873Z,49.2
2018-07-30T22:05:10.998Z,48.9
2018-07-30T22:10:15.478Z,49.4
2018-07-30T22:15:03.226Z,49.3
2018-07-30T22:20:05.193Z,49
2018-07-30T22:25:15.795Z,49.8
2018-07-30T22:30:20.902Z,49.8
2018-07-30T22:35:07.592Z,50.3
2018-07-30T22:40:06.003Z,50.5
2018-07-30T22:45:05.417Z,50.9
2018-07-30T22:50:28.095Z,51.2
2018-07-30T22:55:05.956Z,51.6
2018-07-30T23:00:18.544Z,52
2018-07-30T23:05:02.751Z,51.9
2018-07-30T23:10:03.539Z,52.1
2018-07-30T23:15:05.488Z,52.7
2018-07-30T23:20:08.016Z,53.4
2018-07-30T23:25:03.387Z,53.4
2018-07-30T23:30:02.853Z,53.7
2018-07-30T23:35:03.274Z,54.2
2018-07-30T23:40:05.626Z,55.1
2018-07-30T23:45:05.964Z,55.8
2018-07-30T23:50:18.565Z,56
2018-07-30T23:55:23.181Z,57
